sensor_id;sensor_type;location;lat;lon;timestamp;P1;durP1;ratioP1;P2;durP2;ratioP2
64826;SDS011;51265;53.972;12.286;2024-02-23T00:01:44;1.15;;;0.90;;
64826;SDS011;51265;53.972;12.286;2024-02-23T00:04:11;1.23;;;0.73;;
64826;SDS011;51265;53.972;12.286;2024-02-23T00:06:38;0.90;;;0.85;;
64826;SDS011;51265;53.972;12.286;2024-02-23T00:09:04;0.85;;;0.70;;
64826;SDS011;51265;53.972;12.286;2024-02-23T00:11:30;1.48;;;0.82;;
64826;SDS011;51265;53.972;12.286;2024-02-23T00:13:59;0.50;;;0.50;;
64826;SDS011;51265;53.972;12.286;2024-02-23T00:16:25;1.30;;;0.60;;
64826;SDS011;51265;53.972;12.286;2024-02-23T00:18:55;2.28;;;0.65;;
64826;SDS011;51265;53.972;12.286;2024-02-23T00:21:21;0.77;;;0.63;;
64826;SDS011;51265;53.972;12.286;2024-02-23T00:23:47;0.70;;;0.60;;
64826;SDS011;51265;53.972;12.286;2024-02-23T00:26:13;0.60;;;0.50;;
64826;SDS011;51265;53.972;12.286;2024-02-23T00:28:39;21.15;;;5.85;;
64826;SDS011;51265;53.972;12.286;2024-02-23T00:31:06;0.93;;;0.70;;
64826;SDS011;51265;53.972;12.286;2024-02-23T00:33:32;1.05;;;0.40;;
64826;SDS011;51265;53.972;12.286;2024-02-23T00:35:59;1999.90;;;999.90;;
64826;SDS011;51265;53.972;12.286;2024-02-23T00:38:25;2.45;;;2.08;;
64826;SDS011;51265;53.972;12.286;2024-02-23T00:40:51;0.60;;;0.60;;
64826;SDS011;51265;53.972;12.286;2024-02-23T00:43:18;1.17;;;0.90;;
64826;SDS011;51265;53.972;12.286;2024-02-23T00:45:45;2.47;;;0.70;;
64826;SDS011;51265;53.972;12.286;2024-02-23T00:48:11;0.57;;;0.50;;
64826;SDS011;51265;53.972;12.286;2024-02-23T00:50:38;0.70;;;0.70;;
64826;SDS011;51265;53.972;12.286;2024-02-23T00:53:04;0.60;;;0.60;;
64826;SDS011;51265;53.972;12.286;2024-02-23T00:55:31;1.08;;;0.52;;
64826;SDS011;51265;53.972;12.286;2024-02-23T00:57:57;0.85;;;0.70;;
64826;SDS011;51265;53.972;12.286;2024-02-23T01:00:23;12.82;;;6.40;;
64826;SDS011;51265;53.972;12.286;2024-02-23T01:02:49;1.50;;;0.80;;
64826;SDS011;51265;53.972;12.286;2024-02-23T01:05:17;0.40;;;0.40;;
64826;SDS011;51265;53.972;12.286;2024-02-23T01:07:43;0.57;;;0.50;;
64826;SDS011;51265;53.972;12.286;2024-02-23T01:10:09;1.77;;;0.60;;
64826;SDS011;51265;53.972;12.286;2024-02-23T01:12:35;1.63;;;1.05;;
64826;SDS011;51265;53.972;12.286;2024-02-23T01:15:02;5.65;;;0.70;;
64826;SDS011;51265;53.972;12.286;2024-02-23T01:17:28;2.00;;;0.40;;
64826;SDS011;51265;53.972;12.286;2024-02-23T01:19:54;0.80;;;0.50;;
64826;SDS011;51265;53.972;12.286;2024-02-23T01:22:20;0.68;;;0.40;;
64826;SDS011;51265;53.972;12.286;2024-02-23T01:24:47;0.80;;;0.40;;
64826;SDS011;51265;53.972;12.286;2024-02-23T01:27:15;0.47;;;0.30;;
64826;SDS011;51265;53.972;12.286;2024-02-23T01:29:41;1.55;;;0.60;;
64826;SDS011;51265;53.972;12.286;2024-02-23T01:32:07;1.77;;;0.50;;
64826;SDS011;51265;53.972;12.286;2024-02-23T01:34:33;0.75;;;0.30;;
64826;SDS011;51265;53.972;12.286;2024-02-23T01:37:00;0.60;;;0.40;;
64826;SDS011;51265;53.972;12.286;2024-02-23T01:39:26;2.03;;;0.60;;
64826;SDS011;51265;53.972;12.286;2024-02-23T01:41:52;2.15;;;0.55;;
64826;SDS011;51265;53.972;12.286;2024-02-23T01:44:20;2.17;;;0.45;;
64826;SDS011;51265;53.972;12.286;2024-02-23T01:46:47;0.57;;;0.30;;
64826;SDS011;51265;53.972;12.286;2024-02-23T01:49:16;1.55;;;0.40;;
64826;SDS011;51265;53.972;12.286;2024-02-23T01:51:42;2.00;;;0.40;;
64826;SDS011;51265;53.972;12.286;2024-02-23T01:54:09;1.35;;;0.57;;
64826;SDS011;51265;53.972;12.286;2024-02-23T01:56:36;3.78;;;0.40;;
64826;SDS011;51265;53.972;12.286;2024-02-23T01:59:02;1.67;;;0.50;;
64826;SDS011;51265;53.972;12.286;2024-02-23T02:01:30;0.73;;;0.32;;
64826;SDS011;51265;53.972;12.286;2024-02-23T02:03:57;1.00;;;0.30;;
64826;SDS011;51265;53.972;12.286;2024-02-23T02:06:24;1.25;;;0.43;;
64826;SDS011;51265;53.972;12.286;2024-02-23T02:08:50;1.58;;;0.50;;
64826;SDS011;51265;53.972;12.286;2024-02-23T02:11:16;1.25;;;0.40;;
64826;SDS011;51265;53.972;12.286;2024-02-23T02:13:43;2.47;;;0.40;;
64826;SDS011;51265;53.972;12.286;2024-02-23T02:16:09;11.50;;;10.63;;
64826;SDS011;51265;53.972;12.286;2024-02-23T02:18:37;1.23;;;0.40;;
64826;SDS011;51265;53.972;12.286;2024-02-23T02:21:03;2.08;;;0.30;;
64826;SDS011;51265;53.972;12.286;2024-02-23T02:23:29;0.68;;;0.30;;
64826;SDS011;51265;53.972;12.286;2024-02-23T02:25:56;2.30;;;0.40;;
64826;SDS011;51265;53.972;12.286;2024-02-23T02:28:24;0.77;;;0.40;;
64826;SDS011;51265;53.972;12.286;2024-02-23T02:30:51;1.92;;;0.73;;
64826;SDS011;51265;53.972;12.286;2024-02-23T02:33:18;0.80;;;0.30;;
64826;SDS011;51265;53.972;12.286;2024-02-23T02:35:45;1.70;;;0.20;;
64826;SDS011;51265;53.972;12.286;2024-02-23T02:38:11;0.57;;;0.20;;
64826;SDS011;51265;53.972;12.286;2024-02-23T02:40:37;3.78;;;3.50;;
64826;SDS011;51265;53.972;12.286;2024-02-23T02:43:04;271.48;;;167.90;;
64826;SDS011;51265;53.972;12.286;2024-02-23T02:45:30;1.13;;;0.35;;
64826;SDS011;51265;53.972;12.286;2024-02-23T02:47:56;0.50;;;0.30;;
64826;SDS011;51265;53.972;12.286;2024-02-23T02:50:22;0.20;;;0.13;;
64826;SDS011;51265;53.972;12.286;2024-02-23T02:52:49;1.35;;;0.30;;
64826;SDS011;51265;53.972;12.286;2024-02-23T02:55:15;2.10;;;0.50;;
64826;SDS011;51265;53.972;12.286;2024-02-23T02:57:41;2.20;;;1.30;;
64826;SDS011;51265;53.972;12.286;2024-02-23T03:00:09;0.77;;;0.30;;
64826;SDS011;51265;53.972;12.286;2024-02-23T03:02:36;0.30;;;0.30;;
64826;SDS011;51265;53.972;12.286;2024-02-23T03:05:03;1.50;;;0.32;;
64826;SDS011;51265;53.972;12.286;2024-02-23T03:07:30;0.55;;;0.32;;
64826;SDS011;51265;53.972;12.286;2024-02-23T03:09:56;3.47;;;3.28;;
64826;SDS011;51265;53.972;12.286;2024-02-23T03:12:22;1.58;;;0.30;;
64826;SDS011;51265;53.972;12.286;2024-02-23T03:14:49;83.65;;;21.85;;
64826;SDS011;51265;53.972;12.286;2024-02-23T03:17:15;1.42;;;0.40;;
64826;SDS011;51265;53.972;12.286;2024-02-23T03:19:41;0.98;;;0.28;;
64826;SDS011;51265;53.972;12.286;2024-02-23T03:22:08;25.55;;;23.88;;
64826;SDS011;51265;53.972;12.286;2024-02-23T03:24:34;1520.60;;;769.42;;
64826;SDS011;51265;53.972;12.286;2024-02-23T03:27:00;1.17;;;0.30;;
64826;SDS011;51265;53.972;12.286;2024-02-23T03:29:26;1.40;;;0.40;;
64826;SDS011;51265;53.972;12.286;2024-02-23T03:31:56;0.30;;;0.30;;
64826;SDS011;51265;53.972;12.286;2024-02-23T03:34:22;0.20;;;0.20;;
64826;SDS011;51265;53.972;12.286;2024-02-23T03:36:48;2.15;;;0.15;;
64826;SDS011;51265;53.972;12.286;2024-02-23T03:39:14;0.35;;;0.10;;
64826;SDS011;51265;53.972;12.286;2024-02-23T03:41:41;1.13;;;0.20;;
64826;SDS011;51265;53.972;12.286;2024-02-23T03:44:07;0.15;;;0.10;;
64826;SDS011;51265;53.972;12.286;2024-02-23T03:46:33;1.70;;;1.60;;
64826;SDS011;51265;53.972;12.286;2024-02-23T03:49:00;30.73;;;27.63;;
64826;SDS011;51265;53.972;12.286;2024-02-23T03:51:26;1999.90;;;999.90;;
64826;SDS011;51265;53.972;12.286;2024-02-23T03:53:53;1999.90;;;999.90;;
64826;SDS011;51265;53.972;12.286;2024-02-23T03:56:19;1999.90;;;999.90;;
64826;SDS011;51265;53.972;12.286;2024-02-23T03:58:45;1999.90;;;999.90;;
64826;SDS011;51265;53.972;12.286;2024-02-23T04:01:11;1999.90;;;999.90;;
64826;SDS011;51265;53.972;12.286;2024-02-23T04:03:37;1999.90;;;999.90;;
64826;SDS011;51265;53.972;12.286;2024-02-23T04:06:03;1999.90;;;999.90;;
64826;SDS011;51265;53.972;12.286;2024-02-23T04:08:30;1999.90;;;999.90;;
64826;SDS011;51265;53.972;12.286;2024-02-23T04:10:57;1999.90;;;999.90;;
64826;SDS011;51265;53.972;12.286;2024-02-23T04:13:23;1502.03;;;751.40;;
64826;SDS011;51265;53.972;12.286;2024-02-23T04:15:50;0.40;;;0.40;;
64826;SDS011;51265;53.972;12.286;2024-02-23T04:18:16;1.30;;;0.38;;
64826;SDS011;51265;53.972;12.286;2024-02-23T04:20:42;0.30;;;0.30;;
64826;SDS011;51265;53.972;12.286;2024-02-23T04:23:08;0.30;;;0.30;;
64826;SDS011;51265;53.972;12.286;2024-02-23T04:25:34;0.50;;;0.30;;
64826;SDS011;51265;53.972;12.286;2024-02-23T04:28:00;1.00;;;0.40;;
64826;SDS011;51265;53.972;12.286;2024-02-23T04:30:27;0.73;;;0.40;;
64826;SDS011;51265;53.972;12.286;2024-02-23T04:32:53;0.40;;;0.40;;
64826;SDS011;51265;53.972;12.286;2024-02-23T04:35:19;0.50;;;0.30;;
64826;SDS011;51265;53.972;12.286;2024-02-23T04:37:45;0.40;;;0.30;;
64826;SDS011;51265;53.972;12.286;2024-02-23T04:40:12;0.20;;;0.20;;
64826;SDS011;51265;53.972;12.286;2024-02-23T04:42:38;0.57;;;0.30;;
64826;SDS011;51265;53.972;12.286;2024-02-23T04:45:04;0.93;;;0.28;;
64826;SDS011;51265;53.972;12.286;2024-02-23T04:47:31;0.32;;;0.32;;
64826;SDS011;51265;53.972;12.286;2024-02-23T04:49:58;0.30;;;0.30;;
64826;SDS011;51265;53.972;12.286;2024-02-23T04:52:25;0.35;;;0.35;;
64826;SDS011;51265;53.972;12.286;2024-02-23T04:54:51;0.28;;;0.28;;
64826;SDS011;51265;53.972;12.286;2024-02-23T04:57:17;0.20;;;0.20;;
64826;SDS011;51265;53.972;12.286;2024-02-23T04:59:43;1.20;;;0.30;;
64826;SDS011;51265;53.972;12.286;2024-02-23T05:02:09;0.30;;;0.30;;
64826;SDS011;51265;53.972;12.286;2024-02-23T05:04:36;0.82;;;0.57;;
64826;SDS011;51265;53.972;12.286;2024-02-23T05:07:02;0.30;;;0.30;;
64826;SDS011;51265;53.972;12.286;2024-02-23T05:09:28;0.80;;;0.28;;
64826;SDS011;51265;53.972;12.286;2024-02-23T05:11:55;0.47;;;0.25;;
64826;SDS011;51265;53.972;12.286;2024-02-23T05:14:21;0.57;;;0.40;;
64826;SDS011;51265;53.972;12.286;2024-02-23T05:16:47;0.32;;;0.30;;
64826;SDS011;51265;53.972;12.286;2024-02-23T05:19:13;0.35;;;0.20;;
64826;SDS011;51265;53.972;12.286;2024-02-23T05:21:39;2.00;;;0.40;;
64826;SDS011;51265;53.972;12.286;2024-02-23T05:24:05;1.13;;;0.30;;
64826;SDS011;51265;53.972;12.286;2024-02-23T05:26:31;0.60;;;0.40;;
64826;SDS011;51265;53.972;12.286;2024-02-23T05:28:58;81.55;;;68.00;;
64826;SDS011;51265;53.972;12.286;2024-02-23T05:31:45;41.75;;;39.45;;
64826;SDS011;51265;53.972;12.286;2024-02-23T05:34:14;1999.90;;;999.90;;
64826;SDS011;51265;53.972;12.286;2024-02-23T05:36:41;1.00;;;1.00;;
64826;SDS011;51265;53.972;12.286;2024-02-23T05:39:08;0.90;;;0.90;;
64826;SDS011;51265;53.972;12.286;2024-02-23T05:41:35;0.93;;;0.93;;
64826;SDS011;51265;53.972;12.286;2024-02-23T05:44:03;1.33;;;0.40;;
64826;SDS011;51265;53.972;12.286;2024-02-23T05:46:34;0.22;;;0.20;;
64826;SDS011;51265;53.972;12.286;2024-02-23T05:49:01;0.20;;;0.20;;
64826;SDS011;51265;53.972;12.286;2024-02-23T05:51:28;0.32;;;0.20;;
64826;SDS011;51265;53.972;12.286;2024-02-23T05:53:55;1.65;;;0.40;;
64826;SDS011;51265;53.972;12.286;2024-02-23T05:56:21;0.65;;;0.17;;
64826;SDS011;51265;53.972;12.286;2024-02-23T05:58:48;0.10;;;0.10;;
64826;SDS011;51265;53.972;12.286;2024-02-23T06:01:14;1.95;;;0.20;;
64826;SDS011;51265;53.972;12.286;2024-02-23T06:03:40;1.45;;;0.20;;
64826;SDS011;51265;53.972;12.286;2024-02-23T06:06:07;0.73;;;0.30;;
64826;SDS011;51265;53.972;12.286;2024-02-23T06:08:34;1.13;;;0.20;;
64826;SDS011;51265;53.972;12.286;2024-02-23T06:11:03;0.70;;;0.20;;
64826;SDS011;51265;53.972;12.286;2024-02-23T06:13:30;1.00;;;0.30;;
64826;SDS011;51265;53.972;12.286;2024-02-23T06:15:56;1.27;;;0.30;;
64826;SDS011;51265;53.972;12.286;2024-02-23T06:18:22;0.55;;;0.30;;
64826;SDS011;51265;53.972;12.286;2024-02-23T06:20:49;0.32;;;0.20;;
64826;SDS011;51265;53.972;12.286;2024-02-23T06:23:16;1.27;;;0.40;;
64826;SDS011;51265;53.972;12.286;2024-02-23T06:25:43;0.63;;;0.20;;
64826;SDS011;51265;53.972;12.286;2024-02-23T06:28:12;1.17;;;0.30;;
64826;SDS011;51265;53.972;12.286;2024-02-23T06:30:38;0.65;;;0.20;;
64826;SDS011;51265;53.972;12.286;2024-02-23T06:33:05;0.40;;;0.28;;
64826;SDS011;51265;53.972;12.286;2024-02-23T06:35:31;0.25;;;0.20;;
64826;SDS011;51265;53.972;12.286;2024-02-23T06:37:57;0.80;;;0.28;;
64826;SDS011;51265;53.972;12.286;2024-02-23T06:40:24;0.50;;;0.30;;
64826;SDS011;51265;53.972;12.286;2024-02-23T06:42:50;1.35;;;0.20;;
64826;SDS011;51265;53.972;12.286;2024-02-23T06:45:16;1.23;;;0.40;;
64826;SDS011;51265;53.972;12.286;2024-02-23T06:47:44;0.30;;;0.20;;
64826;SDS011;51265;53.972;12.286;2024-02-23T06:50:10;1.15;;;0.40;;
64826;SDS011;51265;53.972;12.286;2024-02-23T06:52:36;1.65;;;0.40;;
64826;SDS011;51265;53.972;12.286;2024-02-23T06:55:03;4.18;;;0.60;;
64826;SDS011;51265;53.972;12.286;2024-02-23T06:57:30;1.65;;;0.65;;
64826;SDS011;51265;53.972;12.286;2024-02-23T06:59:57;0.73;;;0.30;;
64826;SDS011;51265;53.972;12.286;2024-02-23T07:02:23;5.25;;;0.70;;
64826;SDS011;51265;53.972;12.286;2024-02-23T07:04:49;2.08;;;0.70;;
64826;SDS011;51265;53.972;12.286;2024-02-23T07:07:15;3.05;;;0.63;;
64826;SDS011;51265;53.972;12.286;2024-02-23T07:09:41;1.38;;;0.65;;
64826;SDS011;51265;53.972;12.286;2024-02-23T07:12:08;3.75;;;0.70;;
64826;SDS011;51265;53.972;12.286;2024-02-23T07:14:36;1.65;;;0.60;;
64826;SDS011;51265;53.972;12.286;2024-02-23T07:17:02;1.50;;;0.50;;
64826;SDS011;51265;53.972;12.286;2024-02-23T07:19:28;2.67;;;0.60;;
64826;SDS011;51265;53.972;12.286;2024-02-23T07:21:55;4.88;;;0.65;;
64826;SDS011;51265;53.972;12.286;2024-02-23T07:24:21;2.05;;;0.60;;
64826;SDS011;51265;53.972;12.286;2024-02-23T07:26:47;1.38;;;0.47;;
64826;SDS011;51265;53.972;12.286;2024-02-23T07:29:14;0.93;;;0.30;;
64826;SDS011;51265;53.972;12.286;2024-02-23T07:31:40;1.55;;;0.60;;
64826;SDS011;51265;53.972;12.286;2024-02-23T07:34:06;4.55;;;0.60;;
64826;SDS011;51265;53.972;12.286;2024-02-23T07:36:32;1.33;;;0.52;;
64826;SDS011;51265;53.972;12.286;2024-02-23T07:38:58;2.15;;;0.52;;
64826;SDS011;51265;53.972;12.286;2024-02-23T07:41:25;2.67;;;0.80;;
64826;SDS011;51265;53.972;12.286;2024-02-23T07:43:51;1.02;;;0.40;;
64826;SDS011;51265;53.972;12.286;2024-02-23T07:46:17;1.35;;;0.40;;
64826;SDS011;51265;53.972;12.286;2024-02-23T07:48:43;1.52;;;0.50;;
64826;SDS011;51265;53.972;12.286;2024-02-23T07:51:09;25.42;;;23.92;;
64826;SDS011;51265;53.972;12.286;2024-02-23T07:53:35;1.42;;;0.50;;
64826;SDS011;51265;53.972;12.286;2024-02-23T07:56:01;2.95;;;0.50;;
64826;SDS011;51265;53.972;12.286;2024-02-23T07:58:28;2.47;;;0.70;;
64826;SDS011;51265;53.972;12.286;2024-02-23T08:00:54;1.35;;;0.52;;
64826;SDS011;51265;53.972;12.286;2024-02-23T08:03:20;38.88;;;36.88;;
64826;SDS011;51265;53.972;12.286;2024-02-23T08:05:47;2.08;;;0.68;;
64826;SDS011;51265;53.972;12.286;2024-02-23T08:08:13;108.47;;;24.20;;
64826;SDS011;51265;53.972;12.286;2024-02-23T08:10:39;3.42;;;0.60;;
64826;SDS011;51265;53.972;12.286;2024-02-23T08:13:05;0.90;;;0.43;;
64826;SDS011;51265;53.972;12.286;2024-02-23T08:15:32;1.10;;;0.50;;
64826;SDS011;51265;53.972;12.286;2024-02-23T08:17:58;4.93;;;0.90;;
64826;SDS011;51265;53.972;12.286;2024-02-23T08:20:24;2.50;;;0.80;;
64826;SDS011;51265;53.972;12.286;2024-02-23T08:22:50;1.88;;;0.63;;
64826;SDS011;51265;53.972;12.286;2024-02-23T08:25:16;5.95;;;0.88;;
64826;SDS011;51265;53.972;12.286;2024-02-23T08:27:42;3.03;;;0.88;;
64826;SDS011;51265;53.972;12.286;2024-02-23T08:30:09;2.53;;;0.80;;
64826;SDS011;51265;53.972;12.286;2024-02-23T08:32:36;2.40;;;0.90;;
64826;SDS011;51265;53.972;12.286;2024-02-23T08:35:02;1999.90;;;999.90;;
64826;SDS011;51265;53.972;12.286;2024-02-23T08:37:29;1999.90;;;999.90;;
64826;SDS011;51265;53.972;12.286;2024-02-23T08:39:55;8.82;;;8.05;;
64826;SDS011;51265;53.972;12.286;2024-02-23T08:42:22;1.48;;;0.43;;
64826;SDS011;51265;53.972;12.286;2024-02-23T08:44:48;2.58;;;0.68;;
64826;SDS011;51265;53.972;12.286;2024-02-23T08:47:14;2.05;;;0.32;;
64826;SDS011;51265;53.972;12.286;2024-02-23T08:49:40;1.15;;;0.60;;
64826;SDS011;51265;53.972;12.286;2024-02-23T08:52:07;1.73;;;0.57;;
64826;SDS011;51265;53.972;12.286;2024-02-23T08:54:33;1.25;;;0.63;;
64826;SDS011;51265;53.972;12.286;2024-02-23T08:56:59;2.28;;;0.57;;
64826;SDS011;51265;53.972;12.286;2024-02-23T08:59:25;2.35;;;1.00;;
64826;SDS011;51265;53.972;12.286;2024-02-23T09:01:51;3.22;;;0.68;;
64826;SDS011;51265;53.972;12.286;2024-02-23T09:04:17;2.67;;;0.77;;
64826;SDS011;51265;53.972;12.286;2024-02-23T09:06:43;2.88;;;0.85;;
64826;SDS011;51265;53.972;12.286;2024-02-23T09:09:10;1.67;;;0.75;;
64826;SDS011;51265;53.972;12.286;2024-02-23T09:11:36;4.15;;;1.02;;
64826;SDS011;51265;53.972;12.286;2024-02-23T09:14:03;3.85;;;0.60;;
64826;SDS011;51265;53.972;12.286;2024-02-23T09:16:30;3.17;;;0.80;;
64826;SDS011;51265;53.972;12.286;2024-02-23T09:18:56;1.95;;;0.60;;
64826;SDS011;51265;53.972;12.286;2024-02-23T09:21:22;2.38;;;0.50;;
64826;SDS011;51265;53.972;12.286;2024-02-23T09:23:49;3.88;;;0.75;;
64826;SDS011;51265;53.972;12.286;2024-02-23T09:26:15;2.80;;;0.68;;
64826;SDS011;51265;53.972;12.286;2024-02-23T09:28:42;3.40;;;0.70;;
64826;SDS011;51265;53.972;12.286;2024-02-23T09:31:08;3.08;;;0.90;;
64826;SDS011;51265;53.972;12.286;2024-02-23T09:33:35;2.65;;;0.60;;
64826;SDS011;51265;53.972;12.286;2024-02-23T09:36:01;3.42;;;0.70;;
64826;SDS011;51265;53.972;12.286;2024-02-23T09:38:27;3.97;;;0.65;;
64826;SDS011;51265;53.972;12.286;2024-02-23T09:40:54;3.35;;;0.75;;
64826;SDS011;51265;53.972;12.286;2024-02-23T09:43:21;3.00;;;0.60;;
64826;SDS011;51265;53.972;12.286;2024-02-23T09:45:50;2.47;;;0.50;;
64826;SDS011;51265;53.972;12.286;2024-02-23T09:48:18;2.47;;;0.80;;
64826;SDS011;51265;53.972;12.286;2024-02-23T09:50:45;3.15;;;0.80;;
64826;SDS011;51265;53.972;12.286;2024-02-23T09:53:14;2.17;;;1.10;;
64826;SDS011;51265;53.972;12.286;2024-02-23T09:55:40;3.42;;;0.70;;
64826;SDS011;51265;53.972;12.286;2024-02-23T09:58:09;2.47;;;0.50;;
64826;SDS011;51265;53.972;12.286;2024-02-23T10:00:38;4.03;;;0.70;;
64826;SDS011;51265;53.972;12.286;2024-02-23T10:03:05;2.78;;;1.33;;
64826;SDS011;51265;53.972;12.286;2024-02-23T10:05:31;3.50;;;0.63;;
64826;SDS011;51265;53.972;12.286;2024-02-23T10:07:58;2.97;;;0.60;;
64826;SDS011;51265;53.972;12.286;2024-02-23T10:10:25;1.58;;;0.60;;
64826;SDS011;51265;53.972;12.286;2024-02-23T10:12:57;3.73;;;0.57;;
64826;SDS011;51265;53.972;12.286;2024-02-23T10:15:24;1.73;;;0.60;;
64826;SDS011;51265;53.972;12.286;2024-02-23T10:17:51;3.20;;;0.70;;
64826;SDS011;51265;53.972;12.286;2024-02-23T10:20:20;3.67;;;1.27;;
64826;SDS011;51265;53.972;12.286;2024-02-23T10:22:46;3.67;;;0.60;;
64826;SDS011;51265;53.972;12.286;2024-02-23T10:25:13;1.60;;;0.50;;
64826;SDS011;51265;53.972;12.286;2024-02-23T10:27:41;4.47;;;0.60;;
64826;SDS011;51265;53.972;12.286;2024-02-23T10:30:10;3.50;;;0.60;;
64826;SDS011;51265;53.972;12.286;2024-02-23T10:32:38;1.73;;;0.82;;
64826;SDS011;51265;53.972;12.286;2024-02-23T10:35:05;2.17;;;0.40;;
64826;SDS011;51265;53.972;12.286;2024-02-23T10:37:36;1.98;;;0.55;;
64826;SDS011;51265;53.972;12.286;2024-02-23T10:40:02;2.65;;;0.50;;
64826;SDS011;51265;53.972;12.286;2024-02-23T10:42:33;2.20;;;0.40;;
64826;SDS011;51265;53.972;12.286;2024-02-23T10:45:01;3.33;;;1.33;;
64826;SDS011;51265;53.972;12.286;2024-02-23T10:47:30;2.60;;;0.63;;
64826;SDS011;51265;53.972;12.286;2024-02-23T10:49:57;2.38;;;0.50;;
64826;SDS011;51265;53.972;12.286;2024-02-23T10:52:27;2.28;;;0.45;;
64826;SDS011;51265;53.972;12.286;2024-02-23T10:54:54;1.95;;;0.55;;
64826;SDS011;51265;53.972;12.286;2024-02-23T10:57:22;2.33;;;0.60;;
64826;SDS011;51265;53.972;12.286;2024-02-23T10:59:48;2.60;;;0.43;;
64826;SDS011;51265;53.972;12.286;2024-02-23T11:02:16;3.47;;;0.40;;
64826;SDS011;51265;53.972;12.286;2024-02-23T11:04:46;2.08;;;0.40;;
64826;SDS011;51265;53.972;12.286;2024-02-23T11:07:18;4.03;;;0.90;;
64826;SDS011;51265;53.972;12.286;2024-02-23T11:09:49;1.65;;;0.40;;
64826;SDS011;51265;53.972;12.286;2024-02-23T11:12:24;1.83;;;0.53;;
64826;SDS011;51265;53.972;12.286;2024-02-23T11:14:56;1.95;;;0.40;;
64826;SDS011;51265;53.972;12.286;2024-02-23T11:17:26;1.52;;;0.50;;
64826;SDS011;51265;53.972;12.286;2024-02-23T11:19:54;1.02;;;0.30;;
64826;SDS011;51265;53.972;12.286;2024-02-23T11:22:25;1.58;;;0.50;;
64826;SDS011;51265;53.972;12.286;2024-02-23T11:24:53;2.00;;;0.45;;
64826;SDS011;51265;53.972;12.286;2024-02-23T11:27:20;0.90;;;0.40;;
64826;SDS011;51265;53.972;12.286;2024-02-23T11:29:58;2.20;;;0.60;;
64826;SDS011;51265;53.972;12.286;2024-02-23T11:32:41;2.83;;;0.57;;
64826;SDS011;51265;53.972;12.286;2024-02-23T11:35:13;1.23;;;0.50;;
64826;SDS011;51265;53.972;12.286;2024-02-23T11:37:47;1.77;;;0.50;;
64826;SDS011;51265;53.972;12.286;2024-02-23T11:40:17;2.20;;;0.47;;
64826;SDS011;51265;53.972;12.286;2024-02-23T11:42:43;2.53;;;1.02;;
64826;SDS011;51265;53.972;12.286;2024-02-23T11:45:10;3.15;;;0.68;;
64826;SDS011;51265;53.972;12.286;2024-02-23T11:47:37;3.53;;;0.50;;
64826;SDS011;51265;53.972;12.286;2024-02-23T11:50:05;2.70;;;0.50;;
64826;SDS011;51265;53.972;12.286;2024-02-23T11:52:34;2.30;;;0.50;;
64826;SDS011;51265;53.972;12.286;2024-02-23T11:55:00;4.88;;;0.50;;
64826;SDS011;51265;53.972;12.286;2024-02-23T11:57:26;3.40;;;0.70;;
64826;SDS011;51265;53.972;12.286;2024-02-23T11:59:53;4.72;;;0.63;;
64826;SDS011;51265;53.972;12.286;2024-02-23T12:02:20;2.15;;;0.65;;
64826;SDS011;51265;53.972;12.286;2024-02-23T12:04:47;0.95;;;0.50;;
64826;SDS011;51265;53.972;12.286;2024-02-23T12:07:13;2.45;;;0.60;;
64826;SDS011;51265;53.972;12.286;2024-02-23T12:09:41;2.90;;;0.70;;
64826;SDS011;51265;53.972;12.286;2024-02-23T12:12:08;3.45;;;0.68;;
64826;SDS011;51265;53.972;12.286;2024-02-23T12:14:35;1.85;;;0.40;;
64826;SDS011;51265;53.972;12.286;2024-02-23T12:17:03;3.65;;;0.68;;
64826;SDS011;51265;53.972;12.286;2024-02-23T12:19:32;2.65;;;0.38;;
64826;SDS011;51265;53.972;12.286;2024-02-23T12:22:05;3.42;;;0.63;;
64826;SDS011;51265;53.972;12.286;2024-02-23T12:24:32;1.38;;;0.40;;
64826;SDS011;51265;53.972;12.286;2024-02-23T12:26:58;2.78;;;0.50;;
64826;SDS011;51265;53.972;12.286;2024-02-23T12:29:24;2.60;;;0.50;;
64826;SDS011;51265;53.972;12.286;2024-02-23T12:31:51;47.72;;;5.55;;
64826;SDS011;51265;53.972;12.286;2024-02-23T12:34:18;1.98;;;0.50;;
64826;SDS011;51265;53.972;12.286;2024-02-23T12:36:46;1.33;;;0.45;;
64826;SDS011;51265;53.972;12.286;2024-02-23T12:39:12;1.52;;;0.40;;
64826;SDS011;51265;53.972;12.286;2024-02-23T12:41:39;2.80;;;0.50;;
64826;SDS011;51265;53.972;12.286;2024-02-23T12:44:05;0.60;;;0.22;;
64826;SDS011;51265;53.972;12.286;2024-02-23T12:46:32;3.08;;;0.50;;
64826;SDS011;51265;53.972;12.286;2024-02-23T12:48:58;0.98;;;0.30;;
64826;SDS011;51265;53.972;12.286;2024-02-23T12:51:24;0.70;;;0.50;;
64826;SDS011;51265;53.972;12.286;2024-02-23T12:53:52;1.08;;;0.40;;
64826;SDS011;51265;53.972;12.286;2024-02-23T12:56:18;2.33;;;0.52;;
64826;SDS011;51265;53.972;12.286;2024-02-23T12:58:46;2.38;;;0.55;;
64826;SDS011;51265;53.972;12.286;2024-02-23T13:01:12;1.80;;;0.38;;
64826;SDS011;51265;53.972;12.286;2024-02-23T13:03:38;37.60;;;18.15;;
64826;SDS011;51265;53.972;12.286;2024-02-23T13:06:08;3.08;;;0.60;;
64826;SDS011;51265;53.972;12.286;2024-02-23T13:08:34;2.38;;;0.50;;
64826;SDS011;51265;53.972;12.286;2024-02-23T13:11:00;2.72;;;0.40;;
64826;SDS011;51265;53.972;12.286;2024-02-23T13:13:27;2.08;;;0.40;;
64826;SDS011;51265;53.972;12.286;2024-02-23T13:15:54;76.15;;;9.93;;
64826;SDS011;51265;53.972;12.286;2024-02-23T13:18:21;3.35;;;0.50;;
64826;SDS011;51265;53.972;12.286;2024-02-23T13:20:47;2.50;;;0.60;;
64826;SDS011;51265;53.972;12.286;2024-02-23T13:23:14;82.63;;;10.73;;
64826;SDS011;51265;53.972;12.286;2024-02-23T13:25:41;3.33;;;0.55;;
64826;SDS011;51265;53.972;12.286;2024-02-23T13:28:08;50.30;;;35.92;;
64826;SDS011;51265;53.972;12.286;2024-02-23T13:30:36;3.40;;;0.60;;
64826;SDS011;51265;53.972;12.286;2024-02-23T13:40:47;3.63;;;0.60;;
64826;SDS011;51265;53.972;12.286;2024-02-23T13:43:14;20.90;;;19.48;;
64826;SDS011;51265;53.972;12.286;2024-02-23T13:45:50;1.15;;;0.52;;
64826;SDS011;51265;53.972;12.286;2024-02-23T13:48:18;1.20;;;0.90;;
64826;SDS011;51265;53.972;12.286;2024-02-23T13:50:45;1.88;;;0.50;;
64826;SDS011;51265;53.972;12.286;2024-02-23T13:53:12;1.05;;;0.40;;
64826;SDS011;51265;53.972;12.286;2024-02-23T13:55:39;87.47;;;55.58;;
64826;SDS011;51265;53.972;12.286;2024-02-23T13:58:07;1.20;;;0.30;;
64826;SDS011;51265;53.972;12.286;2024-02-23T14:00:34;2.08;;;0.50;;
64826;SDS011;51265;53.972;12.286;2024-02-23T14:03:01;1.95;;;0.40;;
64826;SDS011;51265;53.972;12.286;2024-02-23T14:05:27;2.60;;;0.55;;
64826;SDS011;51265;53.972;12.286;2024-02-23T14:07:54;5.70;;;4.30;;
64826;SDS011;51265;53.972;12.286;2024-02-23T14:10:20;3.65;;;0.60;;
64826;SDS011;51265;53.972;12.286;2024-02-23T14:12:47;2.75;;;0.50;;
64826;SDS011;51265;53.972;12.286;2024-02-23T14:15:16;1.33;;;0.30;;
64826;SDS011;51265;53.972;12.286;2024-02-23T14:17:42;2.38;;;0.68;;
64826;SDS011;51265;53.972;12.286;2024-02-23T14:20:09;8.35;;;7.63;;
64826;SDS011;51265;53.972;12.286;2024-02-23T14:22:35;50.40;;;21.08;;
64826;SDS011;51265;53.972;12.286;2024-02-23T14:25:02;1.75;;;0.30;;
64826;SDS011;51265;53.972;12.286;2024-02-23T14:27:28;2.38;;;0.55;;
64826;SDS011;51265;53.972;12.286;2024-02-23T14:29:55;2.78;;;0.47;;
64826;SDS011;51265;53.972;12.286;2024-02-23T14:32:21;3.20;;;0.38;;
64826;SDS011;51265;53.972;12.286;2024-02-23T14:34:48;1999.90;;;999.90;;
64826;SDS011;51265;53.972;12.286;2024-02-23T14:37:14;2.03;;;0.65;;